Time;durP1;ratioP1;P1;durP2;ratioP2;P2;SDS_P1;SDS_P2;PMS_P1;PMS_P2;Temp;Humidity;BMP_temperature;BMP_pressure;BME280_temperature;BME280_humidity;BME280_pressure;Samples;Min_cycle;Max_cycle;Signal;HPM_P1;HPM_P2
2022/09/25 00:01:05;;;;;;;3.75;2.08;;;16.60;65.10;;;;;;5064509;28;20057;-71
2022/09/25 00:03:31;;;;;;;3.35;2.00;;;16.60;65.10;;;;;;5053240;28;20067;-71
2022/09/25 00:06:02;;;;;;;2.53;1.90;;;16.60;65.10;;;;;;5051682;28;20410;-71
2022/09/25 00:08:29;;;;;;;2.78;2.05;;;16.60;65.10;;;;;;5052030;28;20057;-71
2022/09/25 00:10:55;;;;;;;4.72;1.90;;;16.60;65.10;;;;;;5051576;28;20052;-71
2022/09/25 00:13:22;;;;;;;4.25;1.95;;;16.60;65.10;;;;;;5035422;28;20049;-71
2022/09/25 00:15:52;;;;;;;2.60;1.95;;;16.60;65.10;;;;;;5060038;28;20402;-71
2022/09/25 00:19:48;;;;;;;3.38;1.85;;;16.60;65.10;;;;;;5072879;28;20040;-71
2022/09/25 00:21:06;;;;;;;4.50;2.17;;;16.50;65.00;;;;;;5071172;28;20156;-71
2022/09/25 00:23:33;;;;;;;3.15;1.83;;;16.60;65.10;;;;;;5071360;28;20131;-71
2022/09/25 00:26:00;;;;;;;3.33;2.00;;;16.60;65.10;;;;;;5071711;28;20060;-70
2022/09/25 00:28:28;;;;;;;3.83;2.17;;;16.50;65.00;;;;;;5071613;28;20063;-71
2022/09/25 00:30:56;;;;;;;3.30;2.30;;;16.50;65.00;;;;;;5057639;28;20155;-71
2022/09/25 00:33:23;;;;;;;1.98;1.60;;;16.50;65.00;;;;;;5051146;28;20049;-71
2022/09/25 00:35:49;;;;;;;3.42;2.00;;;16.50;65.00;;;;;;5051904;28;20059;-71
2022/09/25 00:38:16;;;;;;;3.20;1.67;;;16.50;65.00;;;;;;5051434;28;20059;-71
2022/09/25 00:40:43;;;;;;;2.65;1.83;;;16.50;65.00;;;;;;5051308;28;20505;-71
2022/09/25 00:43:12;;;;;;;2.90;1.75;;;16.50;65.00;;;;;;5052528;28;20049;-71
2022/09/25 00:45:39;;;;;;;3.58;1.70;;;16.50;64.90;;;;;;5065368;28;20053;-71
2022/09/25 00:48:07;;;;;;;3.05;1.70;;;16.40;67.40;;;;;;5070955;28;20048;-71
2022/09/25 00:50:36;;;;;;;3.30;2.20;;;16.50;64.90;;;;;;5071404;28;20072;-71
2022/09/25 00:53:05;;;;;;;2.50;1.90;;;16.50;64.90;;;;;;5071448;28;20058;-71
2022/09/25 00:55:32;;;;;;;3.50;1.77;;;16.30;67.10;;;;;;5070835;28;20150;-71
2022/09/25 00:57:59;;;;;;;2.90;1.80;;;16.40;64.90;;;;;;5071375;28;20052;-71
2022/09/25 01:00:26;;;;;;;2.55;1.73;;;16.50;64.90;;;;;;5051796;28;20057;-71
2022/09/25 01:02:53;;;;;;;2.78;1.77;;;16.50;64.90;;;;;;5051273;28;20490;-71
2022/09/25 01:05:23;;;;;;;2.60;1.70;;;16.50;65.40;;;;;;5050720;28;20080;-71
2022/09/25 01:07:50;;;;;;;2.75;1.55;;;16.40;64.90;;;;;;5051220;28;20421;-71
2022/09/25 01:10:16;;;;;;;2.72;1.73;;;16.30;67.50;;;;;;5050893;28;20053;-71
2022/09/25 01:12:44;;;;;;;2.70;1.75;;;16.40;64.80;;;;;;5051103;28;20145;-71
2022/09/25 01:15:12;;;;;;;2.40;1.80;;;16.40;64.90;;;;;;5069519;28;20052;-71
2022/09/25 01:17:42;;;;;;;1.80;1.60;;;16.40;64.90;;;;;;5071067;28;20064;-71
2022/09/25 01:20:15;;;;;;;2.13;1.55;;;16.40;64.90;;;;;;5071897;28;20048;-71
2022/09/25 01:22:50;;;;;;;2.65;1.80;;;16.40;64.80;;;;;;5071027;28;20060;-71
2022/09/25 01:25:19;;;;;;;2.38;1.60;;;16.40;64.90;;;;;;5070793;28;20127;-71
2022/09/25 01:27:51;;;;;;;3.63;1.73;;;16.40;64.90;;;;;;5064813;28;20055;-71
2022/09/25 01:30:20;;;;;;;3.28;1.70;;;16.40;64.80;;;;;;5050532;28;20132;-71
2022/09/25 01:32:52;;;;;;;3.72;1.80;;;16.40;64.90;;;;;;5050758;28;20514;-71
2022/09/25 01:35:22;;;;;;;3.25;1.60;;;16.40;64.80;;;;;;5050603;28;20053;-71
2022/09/25 01:37:52;;;;;;;3.33;1.60;;;16.40;64.80;;;;;;5050617;28;20666;-71
2022/09/25 01:40:23;;;;;;;2.42;1.52;;;16.40;64.80;;;;;;5050430;28;20139;-71
2022/09/25 01:42:52;;;;;;;2.85;1.73;;;16.40;64.80;;;;;;5052742;28;20043;-71
2022/09/25 01:45:22;;;;;;;3.42;1.52;;;16.40;64.80;;;;;;5050943;28;20508;-71
2022/09/25 01:47:49;;;;;;;3.40;1.58;;;16.30;64.80;;;;;;5054943;28;20053;-71
2022/09/25 01:50:17;;;;;;;2.97;1.63;;;16.30;64.80;;;;;;5054397;28;20053;-71
2022/09/25 01:52:48;;;;;;;2.28;1.50;;;16.30;64.80;;;;;;5054379;28;20077;-71
2022/09/25 01:55:16;;;;;;;2.83;1.70;;;16.30;64.70;;;;;;5054227;28;20063;-71
2022/09/25 01:57:48;;;;;;;2.00;1.58;;;16.30;64.80;;;;;;5067421;28;20080;-70
2022/09/25 02:00:17;;;;;;;2.20;1.40;;;16.30;64.70;;;;;;5068141;28;20506;-70
2022/09/25 02:02:47;;;;;;;2.05;1.40;;;16.30;64.70;;;;;;5055434;28;20410;-69
2022/09/25 02:05:16;;;;;;;2.25;1.52;;;16.30;64.70;;;;;;5053754;28;20048;-69
2022/09/25 02:07:44;;;;;;;2.67;1.27;;;16.30;64.80;;;;;;5053088;28;20133;-69
2022/09/25 02:10:13;;;;;;;1.83;1.30;;;16.30;64.70;;;;;;5042041;28;20053;-69
2022/09/25 02:12:42;;;;;;;2.47;1.40;;;16.30;64.70;;;;;;5055354;28;20056;-69
2022/09/25 02:15:10;;;;;;;1.85;1.30;;;16.30;64.70;;;;;;5055473;28;20418;-69
2022/09/25 02:20:31;;;;;;;1.95;1.30;;;16.30;64.70;;;;;;5054801;28;20045;-69
2022/09/25 02:23:01;;;;;;;2.30;1.40;;;16.20;64.70;;;;;;5053724;28;20465;-69
2022/09/25 02:25:32;;;;;;;2.58;1.40;;;16.20;64.70;;;;;;5053644;28;20053;-69
2022/09/25 02:27:59;;;;;;;1.77;1.33;;;16.20;64.60;;;;;;5053546;28;20140;-69
2022/09/25 02:30:26;;;;;;;1.90;1.30;;;16.20;64.60;;;;;;5054768;28;20053;-69
2022/09/25 02:32:53;;;;;;;2.53;1.50;;;16.20;64.60;;;;;;5053733;28;20409;-69
2022/09/25 02:35:20;;;;;;;2.38;1.30;;;16.20;64.60;;;;;;5054586;28;20055;-69
2022/09/25 02:37:48;;;;;;;2.75;1.58;;;16.20;64.60;;;;;;5054776;28;20055;-69
2022/09/25 02:40:15;;;;;;;2.30;1.30;;;16.20;64.60;;;;;;5056823;28;20083;-69
2022/09/25 02:42:44;;;;;;;2.33;1.60;;;16.20;64.60;;;;;;5074639;28;20056;-69
2022/09/25 02:45:24;;;;;;;2.55;1.60;;;16.20;64.60;;;;;;5073201;28;20052;-69
2022/09/25 02:47:57;;;;;;;1.92;1.38;;;16.20;64.50;;;;;;5073464;28;20070;-69
2022/09/25 02:50:25;;;;;;;2.10;1.35;;;16.20;65.10;;;;;;5074343;28;20045;-70
2022/09/25 02:52:58;;;;;;;3.03;1.60;;;16.20;64.60;;;;;;5073509;28;20053;-70
2022/09/25 02:55:28;;;;;;;1.85;1.40;;;16.20;64.60;;;;;;5062209;28;20053;-70
2022/09/25 02:57:56;;;;;;;2.80;1.42;;;16.10;64.50;;;;;;5050325;28;20053;-69
2022/09/25 03:00:23;;;;;;;2.65;1.30;;;16.20;64.60;;;;;;5052877;28;20060;-70
2022/09/25 03:02:52;;;;;;;2.08;1.45;;;16.20;64.60;;;;;;5053331;28;20052;-70
2022/09/25 03:05:19;;;;;;;2.33;1.40;;;16.20;64.60;;;;;;5053030;28;20147;-70
2022/09/25 03:10:32;;;;;;;1.77;1.15;;;16.10;64.50;;;;;;5052883;28;20053;-70
2022/09/25 03:13:13;;;;;;;3.45;1.77;;;16.10;64.50;;;;;;5053004;28;20067;-71
2022/09/25 03:15:40;;;;;;;2.65;1.20;;;16.20;64.50;;;;;;5053260;28;20053;-70
2022/09/25 03:18:07;;;;;;;1.48;1.20;;;16.10;64.50;;;;;;5052793;28;20060;-70
2022/09/25 03:20:34;;;;;;;1.83;1.30;;;16.10;64.50;;;;;;5052850;28;20053;-69
2022/09/25 03:23:01;;;;;;;2.47;1.33;;;16.10;64.50;;;;;;5052503;28;20049;-70
2022/09/25 03:25:28;;;;;;;1.83;1.30;;;16.10;64.50;;;;;;5072537;28;20059;-70
2022/09/25 03:27:56;;;;;;;2.10;1.30;;;16.10;64.50;;;;;;5072396;28;20060;-71
2022/09/25 03:30:23;;;;;;;2.95;1.20;;;16.10;64.40;;;;;;5073465;28;20054;-72
2022/09/25 03:32:49;;;;;;;3.53;1.40;;;16.10;64.40;;;;;;5072595;28;20060;-70
2022/09/25 03:35:16;;;;;;;2.50;1.30;;;16.10;67.00;;;;;;5073569;28;20386;-70
2022/09/25 03:37:43;;;;;;;3.45;1.60;;;16.10;64.50;;;;;;5073456;28;20041;-70
2022/09/25 03:40:11;;;;;;;2.80;1.45;;;16.10;64.40;;;;;;5072336;28;20060;-70
2022/09/25 03:42:37;;;;;;;3.17;1.40;;;16.10;64.40;;;;;;5072306;28;20087;-70
2022/09/25 03:45:08;;;;;;;1.67;1.17;;;16.10;64.40;;;;;;5072218;28;20050;-70
2022/09/25 03:47:35;;;;;;;2.20;1.20;;;16.10;64.40;;;;;;5072351;28;20066;-72
2022/09/25 03:50:02;;;;;;;2.05;1.17;;;16.10;64.40;;;;;;5072085;28;20412;-70
2022/09/25 03:52:29;;;;;;;1.63;1.10;;;16.00;64.40;;;;;;5069131;28;20057;-70
2022/09/25 03:54:57;;;;;;;2.17;1.20;;;16.00;64.30;;;;;;5052217;28;20057;-70
2022/09/25 03:57:24;;;;;;;2.53;1.30;;;16.00;64.30;;;;;;5051806;28;20059;-72
2022/09/25 03:59:51;;;;;;;2.17;1.20;;;16.00;64.30;;;;;;5053107;28;20053;-70
2022/09/25 04:02:19;;;;;;;2.72;1.10;;;16.00;64.40;;;;;;5051913;28;20060;-71
2022/09/25 04:04:46;;;;;;;2.28;1.20;;;14.70;66.20;;;;;;5052918;28;20123;-70
2022/09/25 04:07:12;;;;;;;2.08;1.23;;;16.00;64.30;;;;;;5051855;28;20099;-70
2022/09/25 04:09:39;;;;;;;1.85;1.10;;;16.00;64.30;;;;;;5052633;28;20409;-70
2022/09/25 04:12:07;;;;;;;2.42;1.30;;;16.00;64.40;;;;;;5051560;28;20068;-72
2022/09/25 04:14:34;;;;;;;1.85;1.30;;;16.00;64.30;;;;;;5052830;28;20102;-70
2022/09/25 04:17:01;;;;;;;2.05;1.30;;;16.00;64.30;;;;;;5052706;28;20041;-70
2022/09/25 04:19:29;;;;;;;1.70;1.13;;;16.00;64.30;;;;;;5051692;28;20053;-70
2022/09/25 04:21:55;;;;;;;2.03;1.17;;;16.00;64.30;;;;;;5059750;28;20044;-70
2022/09/25 04:27:08;;;;;;;2.30;1.20;;;16.00;64.20;;;;;;5071465;28;20493;-70
2022/09/25 04:29:34;;;;;;;1.83;1.10;;;15.90;64.20;;;;;;5071226;28;20478;-71
2022/09/25 04:34:47;;;;;;;1.73;1.00;;;16.20;66.80;;;;;;5071517;28;20052;-70
2022/09/25 04:37:14;;;;;;;1.48;1.13;;;15.90;64.20;;;;;;5060291;28;20536;-70
2022/09/25 04:39:41;;;;;;;1.75;1.17;;;16.00;64.30;;;;;;5064871;28;20060;-70
2022/09/25 04:42:07;;;;;;;2.50;1.27;;;15.90;64.20;;;;;;5069566;28;20054;-70
2022/09/25 04:44:34;;;;;;;2.10;1.40;;;15.90;64.20;;;;;;5071349;28;20071;-70
2022/09/25 04:47:03;;;;;;;2.15;1.15;;;15.90;65.20;;;;;;5070779;28;20402;-71
2022/09/25 04:49:29;;;;;;;1.60;1.13;;;15.90;64.20;;;;;;5070801;28;20465;-70
2022/09/25 04:51:57;;;;;;;2.40;1.33;;;15.90;64.20;;;;;;5054927;28;20049;-70
2022/09/25 04:54:24;;;;;;;2.03;0.98;;;15.90;64.10;;;;;;5051219;28;20409;-70
2022/09/25 04:56:51;;;;;;;1.45;1.20;;;15.90;64.10;;;;;;5050886;28;20045;-70
2022/09/25 04:59:17;;;;;;;2.05;1.27;;;15.90;64.10;;;;;;5051036;28;20136;-71
2022/09/25 05:01:45;;;;;;;1.52;1.10;;;15.90;64.10;;;;;;5050843;28;20486;-70
2022/09/25 05:04:13;;;;;;;1.67;1.10;;;15.90;64.10;;;;;;5050952;28;20409;-70
2022/09/25 05:06:42;;;;;;;2.35;1.40;;;15.90;64.10;;;;;;5051090;28;20395;-70
2022/09/25 05:09:10;;;;;;;1.92;1.27;;;15.80;66.60;;;;;;5051932;28;20057;-70
2022/09/25 05:11:37;;;;;;;1.35;1.00;;;15.90;64.10;;;;;;5050307;28;20053;-69
2022/09/25 05:14:04;;;;;;;2.33;1.35;;;17.00;67.30;;;;;;5050692;28;20554;-69
2022/09/25 05:16:31;;;;;;;1.38;1.10;;;15.90;64.10;;;;;;5050394;28;20048;-69
2022/09/25 05:18:57;;;;;;;1.40;1.00;;;15.90;64.10;;;;;;5052043;28;20059;-69
2022/09/25 05:21:24;;;;;;;2.17;1.10;;;15.90;64.10;;;;;;5049842;28;20060;-70
2022/09/25 05:23:51;;;;;;;2.35;1.20;;;15.90;64.10;;;;;;5050565;28;20106;-69
2022/09/25 05:26:20;;;;;;;1.70;1.13;;;15.90;64.10;;;;;;5050373;28;20049;-70
2022/09/25 05:28:51;;;;;;;1.85;1.10;;;15.90;64.10;;;;;;5050649;28;20053;-70
2022/09/25 05:31:17;;;;;;;1.80;1.20;;;15.90;64.10;;;;;;5050651;28;20490;-70
2022/09/25 05:33:44;;;;;;;1.63;0.90;;;15.90;64.10;;;;;;5051846;28;20071;-72
2022/09/25 05:36:11;;;;;;;1.92;1.10;;;15.80;64.00;;;;;;5070368;28;20052;-70
2022/09/25 05:38:39;;;;;;;2.08;1.20;;;14.80;66.20;;;;;;5072085;28;20052;-69
2022/09/25 05:41:06;;;;;;;1.85;1.08;;;15.90;64.10;;;;;;5071633;28;20075;-70
2022/09/25 05:43:38;;;;;;;1.75;1.02;;;15.90;64.10;;;;;;5070583;28;20056;-70
2022/09/25 05:46:04;;;;;;;1.05;0.95;;;15.90;64.10;;;;;;5070167;28;20090;-72
2022/09/25 05:48:31;;;;;;;1.67;1.10;;;16.60;67.20;;;;;;5070221;28;20050;-70
2022/09/25 05:50:58;;;;;;;1.40;1.00;;;15.90;64.10;;;;;;5071658;28;20074;-70
2022/09/25 05:53:25;;;;;;;1.38;0.90;;;15.90;64.10;;;;;;5070660;28;20067;-70
2022/09/25 05:55:52;;;;;;;1.25;1.00;;;15.90;64.00;;;;;;5070517;28;20131;-70
2022/09/25 05:58:19;;;;;;;1.27;1.00;;;15.90;64.00;;;;;;5070322;28;20066;-70
2022/09/25 06:00:48;;;;;;;1.20;1.00;;;15.90;64.00;;;;;;5070294;28;20375;-70
2022/09/25 06:03:15;;;;;;;1.30;1.00;;;15.80;63.90;;;;;;5066373;28;20071;-70
2022/09/25 06:05:41;;;;;;;1.25;0.90;;;15.90;64.00;;;;;;5050337;28;20469;-70
2022/09/25 06:08:09;;;;;;;1.88;1.40;;;15.80;64.00;;;;;;5050272;28;20067;-70
2022/09/25 06:10:35;;;;;;;2.03;1.10;;;15.90;64.00;;;;;;5050203;28;20057;-70
2022/09/25 06:13:03;;;;;;;2.88;1.30;;;15.80;63.90;;;;;;5050244;28;20052;-70
2022/09/25 06:15:36;;;;;;;1.95;1.02;;;15.80;63.90;;;;;;5050195;28;20095;-70
2022/09/25 06:18:04;;;;;;;1.42;1.10;;;15.80;63.90;;;;;;5058252;28;20052;-69
2022/09/25 06:20:31;;;;;;;4.82;1.55;;;15.90;64.00;;;;;;5070062;28;20494;-70
2022/09/25 06:22:59;;;;;;;1.73;0.95;;;15.80;63.90;;;;;;5070240;28;20060;-71
2022/09/25 06:25:27;;;;;;;1.23;0.90;;;15.80;63.90;;;;;;5070286;28;20059;-70
2022/09/25 06:27:53;;;;;;;1.70;1.10;;;15.80;63.90;;;;;;5070103;28;20048;-69
2022/09/25 06:30:20;;;;;;;1.35;1.00;;;15.80;63.90;;;;;;5069995;28;20084;-71
2022/09/25 06:32:47;;;;;;;2.20;1.10;;;15.80;63.90;;;;;;5072669;28;20448;-71
2022/09/25 06:35:16;;;;;;;1.67;1.10;;;15.80;63.90;;;;;;5074665;28;20409;-71
2022/09/25 06:37:42;;;;;;;1.73;1.15;;;15.80;63.90;;;;;;5074727;28;20045;-71
2022/09/25 06:40:10;;;;;;;1.65;0.95;;;15.80;63.90;;;;;;5073239;28;20413;-71
2022/09/25 06:42:36;;;;;;;1.55;0.98;;;15.80;63.90;;;;;;5073498;28;20482;-71
2022/09/25 06:45:03;;;;;;;2.38;1.20;;;15.80;63.90;;;;;;5074501;28;20052;-71
2022/09/25 06:47:30;;;;;;;1.30;0.98;;;15.80;63.90;;;;;;5061744;28;20053;-71
2022/09/25 06:49:57;;;;;;;1.13;1.00;;;15.80;63.80;;;;;;5053383;28;20059;-71
2022/09/25 06:52:25;;;;;;;1.40;1.00;;;15.80;63.80;;;;;;5053408;28;20131;-72
2022/09/25 06:54:51;;;;;;;5.22;1.00;;;15.80;63.90;;;;;;5054542;28;20055;-71
2022/09/25 06:57:18;;;;;;;2.50;0.90;;;15.80;63.90;;;;;;5054160;28;20055;-72
2022/09/25 06:59:45;;;;;;;0.77;0.75;;;15.80;63.90;;;;;;5052952;28;20397;-72
2022/09/25 07:04:56;;;;;;;1.70;1.00;;;15.80;63.90;;;;;;5071022;28;20044;-72
2022/09/25 07:07:23;;;;;;;1.70;1.05;;;15.80;63.90;;;;;;5053757;28;20306;-72
2022/09/25 07:09:51;;;;;;;1.33;1.00;;;15.80;63.90;;;;;;5053558;28;20049;-72
2022/09/25 07:12:18;;;;;;;1.58;1.00;;;15.80;63.90;;;;;;5053980;28;20075;-71
2022/09/25 07:14:45;;;;;;;2.28;1.10;;;15.80;63.90;;;;;;5054614;28;20406;-71
2022/09/25 07:17:12;;;;;;;1.42;1.00;;;15.80;63.90;;;;;;5053270;28;20118;-71
2022/09/25 07:19:39;;;;;;;1.33;0.85;;;15.80;63.90;;;;;;5054137;28;20075;-71
2022/09/25 07:22:06;;;;;;;1.95;1.05;;;15.90;63.90;;;;;;5052897;28;20053;-70
2022/09/25 07:24:33;;;;;;;1.02;0.90;;;15.90;63.90;;;;;;5052423;28;20063;-70
2022/09/25 07:27:01;;;;;;;1.10;0.90;;;15.10;64.90;;;;;;5052418;28;20472;-71
2022/09/25 07:29:28;;;;;;;1.80;0.90;;;15.90;63.80;;;;;;5052444;28;20049;-71
2022/09/25 07:31:55;;;;;;;1.85;1.10;;;16.00;63.90;;;;;;5058135;28;20052;-72
2022/09/25 07:34:21;;;;;;;2.03;1.00;;;16.00;63.90;;;;;;5072683;28;20052;-71
2022/09/25 07:36:51;;;;;;;2.03;1.00;;;15.80;65.00;;;;;;5074126;28;20048;-72
2022/09/25 07:39:18;;;;;;;2.22;1.15;;;16.00;63.80;;;;;;5073666;28;20059;-71
2022/09/25 07:41:45;;;;;;;1.13;0.90;;;16.10;63.80;;;;;;5072164;28;20135;-71
2022/09/25 07:44:13;;;;;;;1.15;0.93;;;16.10;63.80;;;;;;5071846;28;20080;-71
2022/09/25 07:46:42;;;;;;;1.02;0.90;;;16.10;63.80;;;;;;5072456;28;20049;-72
2022/09/25 07:49:09;;;;;;;1.27;0.80;;;16.20;63.80;;;;;;5061368;28;20556;-72
2022/09/25 07:51:35;;;;;;;1.08;0.75;;;16.20;63.80;;;;;;5054045;28;20051;-72
2022/09/25 07:54:02;;;;;;;1.85;1.00;;;16.20;63.70;;;;;;5054353;28;20409;-71
2022/09/25 07:56:29;;;;;;;2.10;0.98;;;16.20;63.70;;;;;;5052671;28;20052;-72
2022/09/25 07:58:55;;;;;;;1.38;0.90;;;16.30;63.70;;;;;;5052640;28;20067;-72
2022/09/25 08:01:23;;;;;;;2.17;1.08;;;16.30;63.70;;;;;;5053218;28;20051;-72
2022/09/25 08:03:50;;;;;;;0.90;0.80;;;16.30;63.60;;;;;;5054616;28;20049;-71
2022/09/25 08:06:17;;;;;;;1.48;0.98;;;16.30;63.60;;;;;;5057737;28;20413;-71
2022/09/25 08:08:44;;;;;;;1.00;0.80;;;16.30;63.60;;;;;;5059667;28;20052;-71
2022/09/25 08:11:11;;;;;;;1.30;0.80;;;16.40;63.60;;;;;;5051471;28;20106;-71
2022/09/25 08:13:38;;;;;;;2.03;0.93;;;16.40;63.60;;;;;;5052959;28;20409;-71
2022/09/25 08:16:06;;;;;;;3.08;1.08;;;16.40;63.50;;;;;;5051946;28;20048;-71
2022/09/25 08:18:34;;;;;;;2.25;1.00;;;16.40;63.50;;;;;;5066283;28;20397;-71
2022/09/25 08:21:02;;;;;;;1.65;1.00;;;16.00;65.80;;;;;;5072480;28;20045;-71
2022/09/25 08:23:28;;;;;;;1.05;0.80;;;16.50;63.50;;;;;;5063046;28;20445;-71
2022/09/25 08:25:55;;;;;;;0.80;0.80;;;16.50;63.50;;;;;;5050747;28;20065;-72
2022/09/25 08:28:22;;;;;;;1.27;0.80;;;16.50;63.40;;;;;;5051172;28;20049;-71
2022/09/25 08:30:49;;;;;;;1.33;0.80;;;16.50;63.40;;;;;;5050375;28;20060;-71
2022/09/25 08:33:15;;;;;;;2.80;1.08;;;16.60;63.40;;;;;;5048614;28;20421;-71
2022/09/25 08:35:43;;;;;;;1.92;1.10;;;16.50;63.30;;;;;;5047322;28;20052;-72
2022/09/25 08:38:11;;;;;;;2.03;0.80;;;16.60;63.40;;;;;;5052396;28;20049;-72
2022/09/25 08:40:39;;;;;;;0.90;0.70;;;16.60;63.30;;;;;;5050040;28;20559;-71
2022/09/25 08:43:07;;;;;;;0.73;0.70;;;16.60;63.30;;;;;;5051736;28;20053;-71
2022/09/25 08:51:06;;;;;;;0.70;0.70;;;16.70;63.40;;;;;;5051184;28;20297;-71
2022/09/25 08:53:33;;;;;;;1.30;0.85;;;16.70;63.30;;;;;;5051446;28;20076;-71
2022/09/25 08:56:16;;;;;;;1.10;0.80;;;16.70;63.30;;;;;;5050436;28;20053;-70
2022/09/25 08:58:45;;;;;;;1.45;0.90;;;16.70;63.20;;;;;;5031545;28;20081;-71
2022/09/25 09:01:12;;;;;;;1.27;0.80;;;16.80;63.20;;;;;;5032591;28;20045;-71
2022/09/25 09:03:44;;;;;;;1.10;0.80;;;16.80;63.20;;;;;;5049330;28;20487;-70
2022/09/25 09:06:13;;;;;;;0.80;0.80;;;16.80;63.10;;;;;;5030852;28;20057;-71
2022/09/25 09:08:40;;;;;;;1.50;0.80;;;16.80;63.10;;;;;;5034489;28;20045;-71
2022/09/25 09:11:08;;;;;;;1.38;0.90;;;16.80;63.10;;;;;;5051567;28;20057;-72
2022/09/25 09:13:36;;;;;;;0.85;0.80;;;16.90;63.10;;;;;;5052593;28;20059;-72
2022/09/25 09:16:06;;;;;;;2.08;1.00;;;16.80;63.10;;;;;;5050680;28;20052;-72
2022/09/25 09:18:36;;;;;;;1.50;0.95;;;16.90;63.10;;;;;;5050876;28;20045;-72
2022/09/25 09:21:08;;;;;;;2.70;0.90;;;16.90;63.10;;;;;;5050457;28;20096;-71
2022/09/25 09:23:39;;;;;;;1.08;0.70;;;16.90;63.10;;;;;;5050924;28;20060;-71
2022/09/25 09:26:10;;;;;;;1.00;0.90;;;16.90;63.00;;;;;;5049352;28;20059;-71
2022/09/25 09:29:01;;;;;;;3.20;0.90;;;16.90;63.10;;;;;;5064220;28;20044;-71
2022/09/25 09:31:30;;;;;;;1.63;0.85;;;17.00;63.10;;;;;;5065553;28;20436;-72
2022/09/25 09:34:02;;;;;;;1.33;1.10;;;17.00;63.60;;;;;;5050523;28;20049;-72
2022/09/25 09:36:31;;;;;;;0.88;0.80;;;17.00;63.10;;;;;;5051332;28;20049;-72
2022/09/25 09:39:04;;;;;;;3.20;1.02;;;17.00;63.10;;;;;;5048553;28;20045;-73
2022/09/25 09:41:37;;;;;;;3.08;0.93;;;17.00;63.30;;;;;;5052225;28;20057;-72
2022/09/25 09:44:11;;;;;;;2.55;0.90;;;17.00;63.50;;;;;;5064815;28;20490;-71
2022/09/25 09:46:43;;;;;;;2.75;0.90;;;17.10;63.70;;;;;;5057707;28;20052;-71
2022/09/25 09:49:13;;;;;;;2.10;0.98;;;17.10;63.70;;;;;;5056275;28;20128;-72
2022/09/25 09:51:42;;;;;;;3.63;0.90;;;17.10;63.70;;;;;;5052053;28;20076;-72
2022/09/25 09:54:13;;;;;;;2.53;0.90;;;17.10;63.70;;;;;;5053189;28;20136;-72
2022/09/25 09:56:40;;;;;;;3.17;0.88;;;17.20;63.90;;;;;;5052503;28;20533;-72
2022/09/25 09:59:11;;;;;;;2.00;0.90;;;17.20;63.90;;;;;;5051988;28;20045;-72
2022/09/25 10:01:38;;;;;;;2.05;1.05;;;17.20;63.80;;;;;;5053855;28;20132;-72
2022/09/25 10:04:08;;;;;;;4.95;1.00;;;17.20;63.70;;;;;;5062516;28;20045;-72
2022/09/25 10:06:37;;;;;;;5.25;1.15;;;17.20;63.70;;;;;;5045721;28;20053;-72
2022/09/25 10:09:04;;;;;;;3.22;0.90;;;17.20;63.60;;;;;;5042963;28;20413;-72
2022/09/25 10:11:32;;;;;;;3.03;1.10;;;17.20;63.70;;;;;;5048187;28;20124;-72
2022/09/25 10:13:59;;;;;;;1.38;0.98;;;17.10;63.60;;;;;;5045447;28;20049;-72
2022/09/25 10:16:26;;;;;;;2.92;0.80;;;17.10;63.60;;;;;;5034505;28;20064;-71
2022/09/25 10:18:54;;;;;;;4.13;0.90;;;17.10;63.60;;;;;;5043608;28;20477;-71
2022/09/25 10:21:22;;;;;;;1.48;0.90;;;17.10;63.60;;;;;;5055002;28;20402;-71
2022/09/25 10:23:49;;;;;;;1.08;0.70;;;17.00;63.50;;;;;;5053937;28;20057;-70
2022/09/25 10:26:23;;;;;;;4.05;1.10;;;17.10;63.60;;;;;;5054969;28;20478;-71
2022/09/25 10:28:52;;;;;;;10.82;1.85;;;17.00;63.60;;;;;;5053376;28;20056;-71
2022/09/25 10:31:19;;;;;;;20.00;2.55;;;17.10;63.90;;;;;;5052184;28;20063;-71
2022/09/25 10:33:58;;;;;;;14.13;2.25;;;17.00;64.10;;;;;;5053359;28;20083;-71
2022/09/25 10:36:38;;;;;;;11.15;2.33;;;17.10;64.30;;;;;;5052591;28;20067;-71
2022/09/25 10:39:05;;;;;;;11.82;2.20;;;17.10;64.40;;;;;;5051885;28;20067;-72
2022/09/25 10:41:41;;;;;;;8.05;2.00;;;17.10;64.30;;;;;;5051955;28;20131;-71
2022/09/25 10:44:20;;;;;;;11.63;2.75;;;17.20;64.40;;;;;;5052837;28;20398;-72
2022/09/25 10:52:18;;;;;;;11.20;2.25;;;17.30;64.20;;;;;;5054427;28;20078;-71
2022/09/25 10:54:45;;;;;;;7.63;2.17;;;17.40;64.20;;;;;;5053544;28;20536;-71
2022/09/25 10:57:17;;;;;;;9.65;2.33;;;17.40;64.00;;;;;;5053030;28;20080;-72
2022/09/25 10:59:48;;;;;;;8.18;2.55;;;17.40;63.90;;;;;;5053487;28;20095;-71
2022/09/25 11:02:20;;;;;;;7.65;2.05;;;17.50;64.00;;;;;;5052729;28;20072;-71
2022/09/25 11:04:47;;;;;;;8.88;2.15;;;17.50;63.90;;;;;;5053334;28;20052;-71
2022/09/25 11:07:19;;;;;;;7.10;2.35;;;17.50;63.80;;;;;;5053060;28;20063;-72
2022/09/25 11:09:46;;;;;;;5.38;1.95;;;17.50;63.90;;;;;;5053274;28;20057;-72
2022/09/25 11:12:14;;;;;;;5.07;1.70;;;17.50;63.80;;;;;;5054254;28;20399;-72
2022/09/25 11:14:45;;;;;;;5.38;2.03;;;17.50;64.00;;;;;;5053203;28;20505;-72
2022/09/25 11:17:30;;;;;;;7.82;1.80;;;17.50;64.10;;;;;;5060404;28;20105;-72
2022/09/25 11:20:12;;;;;;;5.07;1.73;;;17.60;64.00;;;;;;5051818;28;20067;-71
2022/09/25 11:22:39;;;;;;;5.65;1.80;;;17.60;64.00;;;;;;5054121;28;20045;-71
2022/09/25 11:25:10;;;;;;;7.18;1.70;;;17.60;64.00;;;;;;5052828;28;20053;-70
2022/09/25 11:27:41;;;;;;;5.18;1.92;;;17.70;63.90;;;;;;5053470;28;20075;-71
2022/09/25 11:30:11;;;;;;;6.53;1.70;;;17.70;64.00;;;;;;5053467;28;20433;-71
2022/09/25 11:32:44;;;;;;;4.53;1.52;;;17.60;66.40;;;;;;5044974;28;20056;-71
2022/09/25 11:35:19;;;;;;;5.82;1.83;;;17.80;63.90;;;;;;5049566;28;20052;-71
2022/09/25 11:37:51;;;;;;;4.28;1.50;;;17.80;63.80;;;;;;5051696;28;20051;-71
2022/09/25 11:43:15;;;;;;;2.78;1.50;;;17.80;63.70;;;;;;5051941;28;20060;-71
2022/09/25 11:45:45;;;;;;;4.05;1.65;;;17.80;63.70;;;;;;5052616;28;20052;-71
2022/09/25 11:48:20;;;;;;;8.45;1.77;;;17.80;63.60;;;;;;5060315;28;20068;-71
2022/09/25 11:51:03;;;;;;;5.00;1.50;;;17.80;63.60;;;;;;5060151;28;20068;-71
2022/09/25 11:53:34;;;;;;;4.78;1.60;;;17.80;63.60;;;;;;5053846;28;20404;-72
2022/09/25 11:56:13;;;;;;;5.82;1.48;;;17.80;63.70;;;;;;5051275;28;20049;-72
2022/09/25 11:58:54;;;;;;;5.32;1.58;;;17.80;63.90;;;;;;5051077;28;20045;-72
2022/09/25 12:01:29;;;;;;;5.93;1.67;;;17.80;63.90;;;;;;5052598;28;20136;-72
2022/09/25 12:04:33;;;;;;;5.05;1.40;;;17.70;64.00;;;;;;5053742;28;20060;-72
2022/09/25 12:07:18;;;;;;;5.72;1.70;;;17.70;64.00;;;;;;5043603;28;20063;-71
2022/09/25 12:09:55;;;;;;;3.65;1.40;;;17.70;64.10;;;;;;5050197;28;20062;-72
2022/09/25 12:12:25;;;;;;;3.90;1.30;;;17.70;64.30;;;;;;5054087;28;20048;-72
2022/09/25 12:14:56;;;;;;;3.65;1.25;;;17.70;64.40;;;;;;5052769;28;20569;-70
2022/09/25 12:17:26;;;;;;;2.35;1.20;;;17.70;64.40;;;;;;5052052;28;20095;-70
2022/09/25 12:19:58;;;;;;;2.65;1.38;;;17.70;64.30;;;;;;5062951;28;20140;-70
2022/09/25 12:22:27;;;;;;;4.78;1.52;;;17.70;64.40;;;;;;5057239;28;20048;-70
2022/09/25 12:25:00;;;;;;;3.13;1.20;;;17.70;64.40;;;;;;5050295;28;20056;-71
2022/09/25 12:27:32;;;;;;;2.92;1.20;;;17.70;64.50;;;;;;5049462;28;20130;-71
2022/09/25 12:30:13;;;;;;;2.08;1.15;;;17.70;64.60;;;;;;5049422;28;20064;-71
2022/09/25 12:32:51;;;;;;;2.45;1.30;;;17.70;64.60;;;;;;5050164;28;20135;-72
2022/09/25 12:35:27;;;;;;;3.53;1.13;;;17.70;65.20;;;;;;5050423;28;20057;-71
2022/09/25 12:37:55;;;;;;;3.47;1.40;;;17.70;64.60;;;;;;5050000;28;20053;-71
2022/09/25 12:40:25;;;;;;;3.75;1.40;;;17.70;64.60;;;;;;5050823;28;20402;-70
2022/09/25 12:42:55;;;;;;;4.20;1.20;;;17.70;64.60;;;;;;5050976;28;20064;-71
2022/09/25 12:45:25;;;;;;;3.40;1.33;;;17.60;64.50;;;;;;5051400;28;20049;-71
2022/09/25 12:48:01;;;;;;;3.35;1.40;;;17.60;64.60;;;;;;5051174;28;20409;-70
2022/09/25 12:50:31;;;;;;;3.42;1.42;;;17.60;64.50;;;;;;5051073;28;20565;-71
2022/09/25 12:53:00;;;;;;;3.50;1.10;;;17.60;64.50;;;;;;5051173;28;20059;-70
2022/09/25 12:55:30;;;;;;;2.97;1.27;;;17.60;64.50;;;;;;5050936;28;20098;-70
2022/09/25 12:58:03;;;;;;;3.55;1.27;;;17.60;64.50;;;;;;5050874;28;20183;-71
2022/09/25 13:00:30;;;;;;;2.90;1.30;;;17.60;64.40;;;;;;5048679;28;20063;-72
2022/09/25 13:03:00;;;;;;;3.47;1.30;;;17.60;64.40;;;;;;5051160;28;20056;-70
2022/09/25 13:05:30;;;;;;;2.33;1.45;;;17.60;64.40;;;;;;5056467;28;20289;-71
2022/09/25 13:07:59;;;;;;;2.78;1.13;;;17.60;64.40;;;;;;5071178;28;20059;-72
2022/09/25 13:10:29;;;;;;;2.47;1.02;;;17.60;64.50;;;;;;5072574;28;20473;-71
2022/09/25 13:12:59;;;;;;;2.10;1.05;;;17.70;64.50;;;;;;5072621;28;20048;-70
2022/09/25 13:15:27;;;;;;;2.55;1.27;;;17.70;64.50;;;;;;5070663;28;20048;-70
2022/09/25 13:17:54;;;;;;;4.68;1.25;;;17.70;64.50;;;;;;5070834;28;20076;-70
2022/09/25 13:20:51;;;;;;;2.83;1.00;;;17.70;64.50;;;;;;5064488;28;20490;-69
2022/09/25 13:23:26;;;;;;;1.67;1.00;;;17.70;64.40;;;;;;5049839;28;20056;-71